Lublin, Poland

5:51 PM CEST on October 01, 2016 (GMT +0200)
Rue Joseph de Maistre | | Change Station

Elev 741 ft 51.23 °N, 22.47 °E | Updated 34 seconds ago

Clear
Clear
71.8 °F
Feels Like 76 °F
N
0.0
Wind Variable Wind from North
Gusts 1.2 mph

Today
High -- | Low -- °F
--% Chance of Precip.
Yesterday
High -- | Low -- °F
Precip. -- in
Pressure 29.92 in
Visibility -9999.0 miles
Clouds
Heat Index 76 °F
Dew Point 58 °F
Humidity 62%
Rainfall 0.00 in
Snow Depth Not available.
6:31 AM 6:07 PM
New Moon, 0% visible
METAR EPLB 011530Z 14003KT CAVOK 22/12 Q1013
Pressure 29.92 in
Visibility -9999.0 miles
Clouds
Heat Index 76 °F
Dew Point 58 °F
Humidity 62%
Rainfall 0.00 in
Snow Depth Not available.
6:31 AM 6:07 PM
New Moon, 0% visible
METAR EPLB 011530Z 14003KT CAVOK 22/12 Q1013

10-Day Weather Forecast

×

Almanac

Astronomy

Oct. 01, 2016 Rise Set
Actual Time
Civil Twilight
Nautical Twilight
Astronomical Twilight
Moon
Length of Visible Light
Length of Day
Tomorrow will be .
, % of the Moon is Illuminated

Today's Extremes

Country Highs Country Lows

Community

WunderPhotos

Upload Photos

1,942,957 photos uploaded!

WunderBlog® & News

Nearby

Air Quality

  Air Quality AQ Index Pollutant
Not available.

Snow Depth

Station Depth Elevation

Earthquake Activity

City Distance Mag. Time & Date
Minimum magnitude displayed is 2.5.

Coastal Water Temperatures

Place Temperature

Stations

Nearby Weather Stations

Station Location Temp. Windchill Dew Point Humidity Wind Precip. Elev Updated Type